Time,TemperatureF,DewpointF,PressureIn,WindDirection,WindDirectionDegrees,WindSpeedMPH,WindSpeedGustMPH,Humidity,HourlyPrecipIn,Conditions,Clouds,dailyrainin,SoftwareType,DateUTC
2013-07-15 00:04:00,65.0,41.3,29.73,West,279,0.0,4.0,42,0.00,,,0.00,Wunderground v.1.15,2013-07-15 07:04:00,
2013-07-15 00:09:00,65.8,45.0,29.73,West,279,0.0,0.0,47,0.00,,,0.00,Wunderground v.1.15,2013-07-15 07:09:00,
2013-07-15 00:15:00,66.1,45.8,29.72,West,279,0.0,0.0,48,0.00,,,0.00,Wunderground v.1.15,2013-07-15 07:15:00,
2013-07-15 00:20:00,66.1,44.1,29.72,West,279,0.0,0.0,45,0.00,,,0.00,Wunderground v.1.15,2013-07-15 07:20:00,
2013-07-15 00:26:00,66.0,43.5,29.72,West,279,0.0,3.0,44,0.00,,,0.00,Wunderground v.1.15,2013-07-15 07:26:00,
2013-07-15 00:31:00,66.1,42.9,29.72,West,279,0.0,3.0,43,0.00,,,0.00,Wunderground v.1.15,2013-07-15 07:31:00,
2013-07-15 00:37:00,66.1,42.3,29.72,West,279,0.0,3.0,42,0.00,,,0.00,Wunderground v.1.15,2013-07-15 07:37:00,
2013-07-15 00:43:00,66.0,40.3,29.72,West,279,0.0,0.0,39,0.00,,,0.00,Wunderground v.1.15,2013-07-15 07:43:00,
2013-07-15 00:48:00,66.1,39.1,29.73,West,279,0.0,1.0,37,0.00,,,0.00,Wunderground v.1.15,2013-07-15 07:48:00,
2013-07-15 00:54:00,66.4,37.2,29.73,West,279,1.0,3.0,34,0.00,,,0.00,Wunderground v.1.15,2013-07-15 07:54:00,
2013-07-15 01:00:00,66.8,36.0,29.72,West,279,1.0,3.0,32,0.00,,,0.00,Wunderground v.1.15,2013-07-15 08:00:00,
2013-07-15 01:05:00,67.1,36.2,29.72,West,279,2.0,3.0,32,0.00,,,0.00,Wunderground v.1.15,2013-07-15 08:05:00,
2013-07-15 01:11:00,67.1,37.0,29.72,West,279,3.0,3.0,33,0.00,,,0.00,Wunderground v.1.15,2013-07-15 08:11:00,
2013-07-15 01:17:00,67.3,37.2,29.72,West,279,2.0,3.0,33,0.00,,,0.00,Wunderground v.1.15,2013-07-15 08:17:00,
2013-07-15 01:23:00,67.1,39.9,29.72,West,279,1.0,2.0,37,0.00,,,0.00,Wunderground v.1.15,2013-07-15 08:23:00,
2013-07-15 01:28:00,66.6,40.9,29.72,West,279,0.0,2.0,39,0.00,,,0.00,Wunderground v.1.15,2013-07-15 08:28:00,
2013-07-15 01:34:00,66.6,41.5,29.72,West,279,0.0,0.0,40,0.00,,,0.00,Wunderground v.1.15,2013-07-15 08:34:00,
2013-07-15 01:40:00,66.3,43.7,29.72,West,279,0.0,0.0,44,0.00,,,0.00,Wunderground v.1.15,2013-07-15 08:40:00,
2013-07-15 01:45:00,66.4,43.2,29.72,West,279,0.0,0.0,43,0.00,,,0.00,Wunderground v.1.15,2013-07-15 08:45:00,
2013-07-15 01:51:00,66.8,44.2,29.72,West,279,0.0,0.0,44,0.00,,,0.00,Wunderground v.1.15,2013-07-15 08:51:00,
2013-07-15 01:57:00,66.8,44.2,29.72,West,279,1.0,3.0,44,0.00,,,0.00,Wunderground v.1.15,2013-07-15 08:57:00,
2013-07-15 02:02:00,66.8,41.0,29.71,West,279,2.0,4.0,39,0.00,,,0.00,Wunderground v.1.15,2013-07-15 09:02:00,
2013-07-15 02:07:00,66.8,41.7,29.71,West,279,2.0,4.0,40,0.00,,,0.00,Wunderground v.1.15,2013-07-15 09:07:00,
2013-07-15 02:13:00,66.9,41.8,29.71,West,279,2.0,2.0,40,0.00,,,0.00,Wunderground v.1.15,2013-07-15 09:13:00,
2013-07-15 02:18:00,67.1,42.6,29.71,West,279,1.0,2.0,41,0.00,,,0.00,Wunderground v.1.15,2013-07-15 09:18:00,
2013-07-15 02:24:00,67.1,42.6,29.71,West,279,0.0,0.0,41,0.00,,,0.00,Wunderground v.1.15,2013-07-15 09:24:00,
2013-07-15 02:29:00,67.1,42.6,29.71,West,279,0.0,0.0,41,0.00,,,0.00,Wunderground v.1.15,2013-07-15 09:29:00,
2013-07-15 02:35:00,67.4,42.9,29.71,West,279,1.0,3.0,41,0.00,,,0.00,Wunderground v.1.15,2013-07-15 09:35:00,
2013-07-15 02:40:00,67.4,43.5,29.71,West,279,1.0,1.0,42,0.00,,,0.00,Wunderground v.1.15,2013-07-15 09:40:00,
2013-07-15 02:45:00,67.1,43.8,29.71,West,279,0.0,1.0,43,0.00,,,0.00,Wunderground v.1.15,2013-07-15 09:45:00,
2013-07-15 02:51:00,67.3,44.0,29.71,West,279,0.0,3.0,43,0.00,,,0.00,Wunderground v.1.15,2013-07-15 09:51:00,
2013-07-15 02:56:00,67.4,44.1,29.71,West,281,2.0,3.0,43,0.00,,,0.00,Wunderground v.1.15,2013-07-15 09:56:00,
2013-07-15 03:02:00,67.6,44.3,29.71,WNW,283,1.0,5.0,43,0.00,,,0.00,Wunderground v.1.15,2013-07-15 10:02:00,
2013-07-15 03:08:00,67.6,44.9,29.71,WNW,283,0.0,5.0,44,0.00,,,0.00,Wunderground v.1.15,2013-07-15 10:08:00,
2013-07-15 03:14:00,67.4,45.3,29.70,WNW,283,0.0,2.0,45,0.00,,,0.00,Wunderground v.1.15,2013-07-15 10:14:00,
2013-07-15 03:19:00,67.4,45.3,29.70,WNW,283,0.0,0.0,45,0.00,,,0.00,Wunderground v.1.15,2013-07-15 10:19:00,
2013-07-15 03:24:00,67.3,45.2,29.70,WNW,283,0.0,0.0,45,0.00,,,0.00,Wunderground v.1.15,2013-07-15 10:24:00,
2013-07-15 03:29:00,67.4,45.9,29.70,WNW,283,0.0,0.0,46,0.00,,,0.00,Wunderground v.1.15,2013-07-15 10:29:00,
2013-07-15 03:35:00,67.4,45.9,29.70,WNW,283,0.0,0.0,46,0.00,,,0.00,Wunderground v.1.15,2013-07-15 10:35:00,
2013-07-15 03:40:00,67.6,45.5,29.70,WNW,283,0.0,0.0,45,0.00,,,0.00,Wunderground v.1.15,2013-07-15 10:40:00,
2013-07-15 03:46:00,67.6,46.1,29.70,WNW,283,0.0,0.0,46,0.00,,,0.00,Wunderground v.1.15,2013-07-15 10:46:00,
2013-07-15 03:52:00,67.6,46.1,29.70,WNW,283,0.0,0.0,46,0.00,,,0.00,Wunderground v.1.15,2013-07-15 10:52:00,
2013-07-15 03:58:00,67.4,45.9,29.70,WNW,283,0.0,0.0,46,0.00,,,0.00,Wunderground v.1.15,2013-07-15 10:58:00,
2013-07-15 04:03:00,67.4,45.9,29.69,WNW,283,0.0,4.0,46,0.00,,,0.00,Wunderground v.1.15,2013-07-15 11:03:00,
2013-07-15 04:09:00,67.4,45.3,29.69,WNW,283,0.0,0.0,45,0.00,,,0.00,Wunderground v.1.15,2013-07-15 11:09:00,
2013-07-15 04:15:00,67.4,44.7,29.69,WNW,283,0.0,3.0,44,0.00,,,0.00,Wunderground v.1.15,2013-07-15 11:15:00,
2013-07-15 04:21:00,67.4,44.7,29.69,WNW,284,0.0,0.0,44,0.00,,,0.00,Wunderground v.1.15,2013-07-15 11:21:00,
2013-07-15 04:27:00,67.8,43.9,29.69,WNW,284,0.0,0.0,42,0.00,,,0.00,Wunderground v.1.15,2013-07-15 11:27:00,
2013-07-15 04:32:00,67.8,44.5,29.69,WNW,284,0.0,1.0,43,0.00,,,0.00,Wunderground v.1.15,2013-07-15 11:32:00,
2013-07-15 04:38:00,67.6,44.9,29.69,WNW,284,0.0,1.0,44,0.00,,,0.00,Wunderground v.1.15,2013-07-15 11:38:00,
2013-07-15 04:44:00,67.6,44.3,29.69,WNW,284,0.0,0.0,43,0.00,,,0.00,Wunderground v.1.15,2013-07-15 11:44:00,
2013-07-15 04:50:00,67.8,43.9,29.69,WNW,291,1.0,4.0,42,0.00,,,0.00,Wunderground v.1.15,2013-07-15 11:50:00,
2013-07-15 04:55:00,67.4,44.1,29.69,WNW,291,2.0,4.0,43,0.00,,,0.00,Wunderground v.1.15,2013-07-15 11:55:00,
2013-07-15 05:00:00,67.3,44.0,29.69,WNW,292,2.0,4.0,43,0.00,,,0.00,Wunderground v.1.15,2013-07-15 12:00:00,
2013-07-15 05:05:00,67.1,43.8,29.69,WNW,292,2.0,4.0,43,0.00,,,0.00,Wunderground v.1.15,2013-07-15 12:05:00,
2013-07-15 05:11:00,66.9,43.7,29.69,WNW,294,3.0,4.0,43,0.00,,,0.00,Wunderground v.1.15,2013-07-15 12:11:00,
2013-07-15 05:16:00,66.9,43.7,29.69,WNW,295,3.0,4.0,43,0.00,,,0.00,Wunderground v.1.15,2013-07-15 12:16:00,
2013-07-15 05:22:00,66.9,43.0,29.69,WNW,296,3.0,3.0,42,0.00,,,0.00,Wunderground v.1.15,2013-07-15 12:22:00,
2013-07-15 05:27:00,67.1,43.2,29.69,WNW,296,3.0,3.0,42,0.00,,,0.00,Wunderground v.1.15,2013-07-15 12:27:00,
2013-07-15 05:33:00,67.1,43.2,29.69,WNW,296,1.0,2.0,42,0.00,,,0.00,Wunderground v.1.15,2013-07-15 12:33:00,
2013-07-15 05:39:00,67.1,43.2,29.69,WNW,296,1.0,1.0,42,0.00,,,0.00,Wunderground v.1.15,2013-07-15 12:39:00,
2013-07-15 05:44:00,66.9,43.7,29.69,WNW,296,1.0,2.0,43,0.00,,,0.00,Wunderground v.1.15,2013-07-15 12:44:00,
2013-07-15 05:50:00,66.9,43.0,29.69,WNW,297,1.0,1.0,42,0.00,,,0.00,Wunderground v.1.15,2013-07-15 12:50:00,
2013-07-15 05:55:00,66.9,43.0,29.69,WNW,297,1.0,4.0,42,0.00,,,0.00,Wunderground v.1.15,2013-07-15 12:55:00,
2013-07-15 06:01:00,66.8,43.0,29.69,WNW,297,2.0,5.0,42,0.00,,,0.00,Wunderground v.1.15,2013-07-15 13:01:00,
2013-07-15 06:07:00,66.9,43.0,29.69,WNW,298,3.0,5.0,42,0.00,,,0.00,Wunderground v.1.15,2013-07-15 13:07:00,
2013-07-15 06:12:00,66.8,43.0,29.69,WNW,298,3.0,4.0,42,0.00,,,0.00,Wunderground v.1.15,2013-07-15 13:12:00,
2013-07-15 06:17:00,66.9,43.0,29.69,WNW,298,3.0,4.0,42,0.00,,,0.00,Wunderground v.1.15,2013-07-15 13:17:00,
2013-07-15 06:23:00,66.9,43.7,29.69,WNW,298,3.0,4.0,43,0.00,,,0.00,Wunderground v.1.15,2013-07-15 13:23:00,
2013-07-15 06:29:00,67.3,43.4,29.70,WNW,298,3.0,3.0,42,0.00,,,0.00,Wunderground v.1.15,2013-07-15 13:29:00,
2013-07-15 06:35:00,67.1,43.8,29.70,WNW,298,2.0,4.0,43,0.00,,,0.00,Wunderground v.1.15,2013-07-15 13:35:00,
2013-07-15 06:41:00,67.1,43.8,29.70,WNW,298,0.0,1.0,43,0.00,,,0.00,Wunderground v.1.15,2013-07-15 13:41:00,
2013-07-15 06:46:00,67.1,43.8,29.70,WNW,298,0.0,1.0,43,0.00,,,0.00,Wunderground v.1.15,2013-07-15 13:46:00,
2013-07-15 06:52:00,66.9,44.9,29.70,WNW,298,0.0,0.0,45,0.00,,,0.00,Wunderground v.1.15,2013-07-15 13:52:00,
2013-07-15 06:57:00,66.9,44.3,29.70,WNW,298,0.0,0.0,44,0.00,,,0.00,Wunderground v.1.15,2013-07-15 13:57:00,
2013-07-15 07:02:00,67.3,44.6,29.70,WNW,298,0.0,5.0,44,0.00,,,0.00,Wunderground v.1.15,2013-07-15 14:02:00,
2013-07-15 07:07:00,67.6,44.3,29.70,WNW,298,0.0,5.0,43,0.00,,,0.00,Wunderground v.1.15,2013-07-15 14:07:00,
2013-07-15 07:12:00,67.9,44.0,29.70,WNW,298,0.0,0.0,42,0.00,,,0.00,Wunderground v.1.15,2013-07-15 14:12:00,
2013-07-15 07:17:00,68.3,43.7,29.70,WNW,298,0.0,0.0,41,0.00,,,0.00,Wunderground v.1.15,2013-07-15 14:17:00,
2013-07-15 07:22:00,68.8,43.5,29.70,WNW,298,0.0,0.0,40,0.00,,,0.00,Wunderground v.1.15,2013-07-15 14:22:00,
2013-07-15 07:28:00,69.3,43.9,29.71,WNW,298,0.0,0.0,40,0.00,,,0.00,Wunderground v.1.15,2013-07-15 14:28:00,
2013-07-15 07:34:00,69.6,43.5,29.71,WNW,298,0.0,0.0,39,0.00,,,0.00,Wunderground v.1.15,2013-07-15 14:34:00,
2013-07-15 07:40:00,69.9,43.8,29.71,WNW,298,0.0,0.0,39,0.00,,,0.00,Wunderground v.1.15,2013-07-15 14:40:00,
2013-07-15 07:46:00,70.1,44.0,29.70,WNW,298,0.0,0.0,39,0.00,,,0.00,Wunderground v.1.15,2013-07-15 14:46:00,
2013-07-15 07:52:00,70.3,44.2,29.70,WNW,298,0.0,0.0,39,0.00,,,0.00,Wunderground v.1.15,2013-07-15 14:52:00,
2013-07-15 07:57:00,70.4,44.3,29.70,WNW,298,0.0,0.0,39,0.00,,,0.00,Wunderground v.1.15,2013-07-15 14:57:00,
2013-07-15 08:02:00,70.4,44.3,29.71,WNW,298,0.0,6.0,39,0.00,,,0.00,Wunderground v.1.15,2013-07-15 15:02:00,
2013-07-15 08:07:00,70.6,45.1,29.71,WNW,298,0.0,6.0,40,0.00,,,0.00,Wunderground v.1.15,2013-07-15 15:07:00,
2013-07-15 08:12:00,70.9,46.0,29.71,WNW,298,0.0,0.0,41,0.00,,,0.00,Wunderground v.1.15,2013-07-15 15:12:00,
2013-07-15 08:20:00,71.3,47.0,29.71,WNW,298,0.0,0.0,42,0.00,,,0.00,Wunderground v.1.15,2013-07-15 15:20:00,
2013-07-15 08:26:00,71.6,46.6,29.71,WNW,298,0.0,0.0,41,0.00,,,0.00,Wunderground v.1.15,2013-07-15 15:26:00,
2013-07-15 08:32:00,72.0,46.3,29.71,WNW,298,0.0,0.0,40,0.00,,,0.00,Wunderground v.1.15,2013-07-15 15:32:00,
2013-07-15 08:38:00,72.1,46.4,29.71,WNW,298,0.0,0.0,40,0.00,,,0.00,Wunderground v.1.15,2013-07-15 15:38:00,
2013-07-15 08:45:00,72.5,46.1,29.71,WNW,298,0.0,0.0,39,0.00,,,0.00,Wunderground v.1.15,2013-07-15 15:45:00,
2013-07-15 08:50:00,72.5,45.4,29.71,WNW,298,0.0,0.0,38,0.00,,,0.00,Wunderground v.1.15,2013-07-15 15:50:00,
2013-07-15 08:56:00,72.5,45.4,29.71,WNW,298,0.0,0.0,38,0.00,,,0.00,Wunderground v.1.15,2013-07-15 15:56:00,
2013-07-15 09:02:00,72.7,44.2,29.71,WNW,298,0.0,1.0,36,0.00,,,0.00,Wunderground v.1.15,2013-07-15 16:02:00,
2013-07-15 09:07:00,72.7,42.7,29.71,WNW,298,0.0,1.0,34,0.00,,,0.00,Wunderground v.1.15,2013-07-15 16:07:00,
2013-07-15 09:15:00,72.7,44.2,29.71,WNW,298,0.0,0.0,36,0.00,,,0.00,Wunderground v.1.15,2013-07-15 16:15:00,
2013-07-15 09:20:00,72.8,43.5,29.71,WNW,298,0.0,0.0,35,0.00,,,0.00,Wunderground v.1.15,2013-07-15 16:20:00,
2013-07-15 09:26:00,73.0,41.4,29.71,WNW,298,0.0,0.0,32,0.00,,,0.00,Wunderground v.1.15,2013-07-15 16:26:00,
2013-07-15 09:32:00,73.0,42.2,29.71,WNW,298,0.0,3.0,33,0.00,,,0.00,Wunderground v.1.15,2013-07-15 16:32:00,
2013-07-15 09:38:00,73.2,42.4,29.71,WNW,298,0.0,3.0,33,0.00,,,0.00,Wunderground v.1.15,2013-07-15 16:38:00,
2013-07-15 09:43:00,73.5,42.6,29.71,WNW,298,0.0,3.0,33,0.00,,,0.00,Wunderground v.1.15,2013-07-15 16:43:00,
2013-07-15 09:50:00,73.5,41.8,29.71,WNW,302,0.0,0.0,32,0.00,,,0.00,Wunderground v.1.15,2013-07-15 16:50:00,
2013-07-15 09:56:00,73.9,42.2,29.71,NW,304,0.0,0.0,32,0.00,,,0.00,Wunderground v.1.15,2013-07-15 16:56:00,
2013-07-15 10:02:00,74.0,42.3,29.71,WNW,301,0.0,1.0,32,0.00,,,0.00,Wunderground v.1.15,2013-07-15 17:02:00,
2013-07-15 10:08:00,74.0,40.6,29.71,West,273,0.0,3.0,30,0.00,,,0.00,Wunderground v.1.15,2013-07-15 17:08:00,
2013-07-15 10:14:00,74.2,41.6,29.72,West,272,0.0,0.0,31,0.00,,,0.00,Wunderground v.1.15,2013-07-15 17:14:00,
2013-07-15 10:20:00,74.9,40.5,29.72,West,271,0.0,0.0,29,0.00,,,0.00,Wunderground v.1.15,2013-07-15 17:20:00,
2013-07-15 10:25:00,75.1,41.5,29.72,West,273,0.0,0.0,30,0.00,,,0.00,Wunderground v.1.15,2013-07-15 17:25:00,
2013-07-15 10:31:00,74.6,41.1,29.72,West,273,0.0,1.0,30,0.00,,,0.00,Wunderground v.1.15,2013-07-15 17:31:00,
2013-07-15 10:36:00,73.9,41.3,29.72,West,275,1.0,3.0,31,0.00,,,0.00,Wunderground v.1.15,2013-07-15 17:36:00,
2013-07-15 10:42:00,74.4,41.8,29.72,West,278,1.0,1.0,31,0.00,,,0.00,Wunderground v.1.15,2013-07-15 17:42:00,
2013-07-15 10:47:00,74.9,41.4,29.72,WNW,284,1.0,2.0,30,0.00,,,0.00,Wunderground v.1.15,2013-07-15 17:47:00,
2013-07-15 10:54:00,75.4,41.8,29.72,WNW,286,0.0,1.0,30,0.00,,,0.00,Wunderground v.1.15,2013-07-15 17:54:00,
2013-07-15 11:00:00,75.4,41.8,29.72,WNW,284,0.0,5.0,30,0.00,,,0.00,Wunderground v.1.15,2013-07-15 18:00:00,
2013-07-15 11:05:00,75.3,41.7,29.72,WNW,291,0.0,5.0,30,0.00,,,0.00,Wunderground v.1.15,2013-07-15 18:05:00,
2013-07-15 11:11:00,75.1,41.5,29.72,WNW,291,0.0,1.0,30,0.00,,,0.00,Wunderground v.1.15,2013-07-15 18:11:00,
2013-07-15 11:16:00,74.6,42.0,29.72,WNW,290,1.0,3.0,31,0.00,,,0.00,Wunderground v.1.15,2013-07-15 18:16:00,
2013-07-15 11:23:00,74.9,42.2,29.72,WNW,290,1.0,1.0,31,0.00,,,0.00,Wunderground v.1.15,2013-07-15 18:23:00,
2013-07-15 11:29:00,75.8,42.1,29.72,WNW,284,0.0,0.0,30,0.00,,,0.00,Wunderground v.1.15,2013-07-15 18:29:00,
2013-07-15 11:35:00,75.4,42.7,29.72,WNW,290,1.0,4.0,31,0.00,,,0.00,Wunderground v.1.15,2013-07-15 18:35:00,
2013-07-15 11:40:00,75.3,42.6,29.72,WNW,284,1.0,4.0,31,0.00,,,0.00,Wunderground v.1.15,2013-07-15 18:40:00,
2013-07-15 11:46:00,76.5,41.9,29.73,WNW,285,1.0,4.0,29,0.00,,,0.00,Wunderground v.1.15,2013-07-15 18:46:00,
2013-07-15 11:51:00,75.6,42.0,29.73,WNW,293,1.0,5.0,30,0.00,,,0.00,Wunderground v.1.15,2013-07-15 18:51:00,
2013-07-15 11:56:00,74.2,40.8,29.73,West,270,2.0,5.0,30,0.00,,,0.00,Wunderground v.1.15,2013-07-15 18:56:00,
2013-07-15 12:02:00,74.6,41.1,29.73,WNW,286,1.0,7.0,30,0.00,,,0.00,Wunderground v.1.15,2013-07-15 19:02:00,
2013-07-15 12:07:00,74.0,40.6,29.73,WNW,284,1.0,7.0,30,0.00,,,0.00,Wunderground v.1.15,2013-07-15 19:07:00,
2013-07-15 12:12:00,74.4,40.9,29.73,WNW,284,1.0,3.0,30,0.00,,,0.00,Wunderground v.1.15,2013-07-15 19:12:00,
2013-07-15 12:18:00,74.0,40.6,29.73,West,272,1.0,4.0,30,0.00,,,0.00,Wunderground v.1.15,2013-07-15 19:18:00,
2013-07-15 12:23:00,74.2,41.6,29.73,West,263,2.0,5.0,31,0.00,,,0.00,Wunderground v.1.15,2013-07-15 19:23:00,
2013-07-15 12:31:00,73.5,41.8,29.73,NW,311,2.0,2.0,32,0.00,,,0.00,Wunderground v.1.15,2013-07-15 19:31:00,
2013-07-15 12:37:00,74.0,43.1,29.73,NW,305,1.0,3.0,33,0.00,,,0.00,Wunderground v.1.15,2013-07-15 19:37:00,
2013-07-15 12:42:00,75.1,42.4,29.73,SW,225,1.0,3.0,31,0.00,,,0.00,Wunderground v.1.15,2013-07-15 19:42:00,
2013-07-15 12:49:00,75.6,42.8,29.72,WSW,243,1.0,1.0,31,0.00,,,0.00,Wunderground v.1.15,2013-07-15 19:49:00,
2013-07-15 12:55:00,76.3,42.6,29.72,West,270,1.0,5.0,30,0.00,,,0.00,Wunderground v.1.15,2013-07-15 19:55:00,
2013-07-15 13:00:00,75.1,42.4,29.72,NW,322,1.0,7.0,31,0.00,,,0.00,Wunderground v.1.15,2013-07-15 20:00:00,
2013-07-15 13:06:00,74.9,42.2,29.72,WNW,294,2.0,8.0,31,0.00,,,0.00,Wunderground v.1.15,2013-07-15 20:06:00,
2013-07-15 13:11:00,75.6,42.8,29.72,WNW,294,1.0,1.0,31,0.00,,,0.00,Wunderground v.1.15,2013-07-15 20:11:00,
2013-07-15 13:17:00,76.3,43.4,29.72,West,280,1.0,1.0,31,0.00,,,0.00,Wunderground v.1.15,2013-07-15 20:17:00,
2013-07-15 13:23:00,76.3,43.4,29.72,WSW,244,1.0,6.0,31,0.00,,,0.00,Wunderground v.1.15,2013-07-15 20:23:00,
2013-07-15 13:29:00,76.8,43.0,29.72,West,259,0.0,0.0,30,0.00,,,0.00,Wunderground v.1.15,2013-07-15 20:29:00,
2013-07-15 13:34:00,76.3,41.7,29.72,WNW,290,1.0,5.0,29,0.00,,,0.00,Wunderground v.1.15,2013-07-15 20:34:00,
2013-07-15 13:39:00,76.0,42.3,29.72,NW,316,1.0,1.0,30,0.00,,,0.00,Wunderground v.1.15,2013-07-15 20:39:00,
2013-07-15 13:45:00,76.1,42.4,29.73,WSW,246,1.0,5.0,30,0.00,,,0.00,Wunderground v.1.15,2013-07-15 20:45:00,
2013-07-15 13:50:00,75.3,41.7,29.73,West,277,2.0,5.0,30,0.00,,,0.00,Wunderground v.1.15,2013-07-15 20:50:00,
2013-07-15 13:55:00,74.4,42.6,29.73,WNW,288,2.0,5.0,32,0.00,,,0.00,Wunderground v.1.15,2013-07-15 20:55:00,
2013-07-15 14:01:00,75.6,42.8,29.72,SW,229,1.0,9.0,31,0.00,,,0.00,Wunderground v.1.15,2013-07-15 21:01:00,
2013-07-15 14:07:00,75.3,40.8,29.72,West,269,1.0,9.0,29,0.00,,,0.00,Wunderground v.1.15,2013-07-15 21:07:00,
2013-07-15 14:13:00,74.9,41.4,29.72,West,261,2.0,2.0,30,0.00,,,0.00,Wunderground v.1.15,2013-07-15 21:13:00,
2013-07-15 14:19:00,75.3,40.8,29.72,North,351,2.0,2.0,29,0.00,,,0.00,Wunderground v.1.15,2013-07-15 21:19:00,
2013-07-15 14:24:00,76.1,41.5,29.72,NW,304,2.0,5.0,29,0.00,,,0.00,Wunderground v.1.15,2013-07-15 21:24:00,
2013-07-15 14:30:00,76.3,40.8,29.72,WNW,288,1.0,1.0,28,0.00,,,0.00,Wunderground v.1.15,2013-07-15 21:30:00,
2013-07-15 14:35:00,76.0,39.6,29.72,SW,226,1.0,4.0,27,0.00,,,0.00,Wunderground v.1.15,2013-07-15 21:35:00,
2013-07-15 14:42:00,76.3,40.8,29.72,NW,309,2.0,5.0,28,0.00,,,0.00,Wunderground v.1.15,2013-07-15 21:42:00,
2013-07-15 14:48:00,75.3,39.9,29.71,NNW,332,3.0,6.0,28,0.00,,,0.00,Wunderground v.1.15,2013-07-15 21:48:00,
2013-07-15 14:53:00,75.3,39.0,29.71,West,268,4.0,8.0,27,0.00,,,0.00,Wunderground v.1.15,2013-07-15 21:53:00,
2013-07-15 15:00:00,75.6,39.2,29.71,WNW,295,4.0,7.0,27,0.00,,,0.00,Wunderground v.1.15,2013-07-15 22:00:00,
2013-07-15 15:06:00,76.8,40.3,29.71,West,271,3.0,12.0,27,0.00,,,0.00,Wunderground v.1.15,2013-07-15 22:06:00,
2013-07-15 15:12:00,76.1,39.7,29.71,NNE,13,2.0,4.0,27,0.00,,,0.00,Wunderground v.1.15,2013-07-15 22:12:00,
2013-07-15 15:17:00,75.8,40.4,29.70,WSW,239,2.0,4.0,28,0.00,,,0.00,Wunderground v.1.15,2013-07-15 22:17:00,
2013-07-15 15:22:00,76.0,41.4,29.70,West,277,2.0,4.0,29,0.00,,,0.00,Wunderground v.1.15,2013-07-15 22:22:00,
2013-07-15 15:28:00,75.4,41.8,29.70,SW,234,1.0,4.0,30,0.00,,,0.00,Wunderground v.1.15,2013-07-15 22:28:00,
2013-07-15 15:34:00,75.8,40.4,29.70,West,265,1.0,2.0,28,0.00,,,0.00,Wunderground v.1.15,2013-07-15 22:34:00,
2013-07-15 15:39:00,76.7,41.1,29.70,WNW,300,1.0,1.0,28,0.00,,,0.00,Wunderground v.1.15,2013-07-15 22:39:00,
2013-07-15 15:45:00,76.1,41.5,29.70,West,270,1.0,7.0,29,0.00,,,0.00,Wunderground v.1.15,2013-07-15 22:45:00,
2013-07-15 15:51:00,76.0,42.3,29.70,WNW,288,1.0,1.0,30,0.00,,,0.00,Wunderground v.1.15,2013-07-15 22:51:00,
2013-07-15 15:57:00,75.4,40.9,29.70,WSW,248,1.0,8.0,29,0.00,,,0.00,Wunderground v.1.15,2013-07-15 22:57:00,
2013-07-15 16:03:00,75.8,41.3,29.70,NW,326,1.0,12.0,29,0.00,,,0.00,Wunderground v.1.15,2013-07-15 23:03:00,
2013-07-15 16:09:00,76.5,40.0,29.70,North,351,0.0,0.0,27,0.00,,,0.00,Wunderground v.1.15,2013-07-15 23:09:00,
2013-07-15 16:14:00,75.6,41.1,29.69,NW,318,1.0,5.0,29,0.00,,,0.00,Wunderground v.1.15,2013-07-15 23:14:00,
2013-07-15 16:21:00,75.1,41.5,29.69,WNW,289,2.0,4.0,30,0.00,,,0.00,Wunderground v.1.15,2013-07-15 23:21:00,
2013-07-15 16:27:00,75.3,41.7,29.69,West,271,3.0,8.0,30,0.00,,,0.00,Wunderground v.1.15,2013-07-15 23:27:00,
2013-07-15 16:32:00,75.8,41.3,29.69,North,5,3.0,5.0,29,0.00,,,0.00,Wunderground v.1.15,2013-07-15 23:32:00,
2013-07-15 16:38:00,74.6,42.0,29.69,West,263,3.0,10.0,31,0.00,,,0.00,Wunderground v.1.15,2013-07-15 23:38:00,
2013-07-15 16:43:00,73.9,41.3,29.68,NNW,331,4.0,7.0,31,0.00,,,0.00,Wunderground v.1.15,2013-07-15 23:43:00,
2013-07-15 16:50:00,74.0,40.6,29.68,WSW,240,4.0,10.0,30,0.00,,,0.00,Wunderground v.1.15,2013-07-15 23:50:00,
2013-07-15 16:55:00,73.9,41.3,29.68,North,355,4.0,10.0,31,0.00,,,0.00,Wunderground v.1.15,2013-07-15 23:55:00,
2013-07-15 17:01:00,73.7,41.2,29.68,North,360,5.0,11.0,31,0.00,,,0.00,Wunderground v.1.15,2013-07-16 00:01:00,
2013-07-15 17:07:00,73.2,41.6,29.68,West,263,5.0,11.0,32,0.00,,,0.00,Wunderground v.1.15,2013-07-16 00:07:00,
2013-07-15 17:13:00,73.2,41.6,29.68,NNW,348,5.0,7.0,32,0.00,,,0.00,Wunderground v.1.15,2013-07-16 00:13:00,
2013-07-15 17:18:00,73.3,40.8,29.68,West,269,5.0,7.0,31,0.00,,,0.00,Wunderground v.1.15,2013-07-16 00:18:00,
2013-07-15 17:23:00,72.8,41.2,29.68,NW,305,4.0,5.0,32,0.00,,,0.00,Wunderground v.1.15,2013-07-16 00:23:00,
2013-07-15 17:29:00,72.7,41.1,29.68,West,265,4.0,4.0,32,0.00,,,0.00,Wunderground v.1.15,2013-07-16 00:29:00,
2013-07-15 17:34:00,72.3,40.8,29.68,NNW,332,5.0,7.0,32,0.00,,,0.00,Wunderground v.1.15,2013-07-16 00:34:00,
2013-07-15 17:40:00,72.1,40.6,29.68,North,355,5.0,10.0,32,0.00,,,0.00,Wunderground v.1.15,2013-07-16 00:40:00,
2013-07-15 17:45:00,72.0,39.7,29.68,WNW,284,5.0,10.0,31,0.00,,,0.00,Wunderground v.1.15,2013-07-16 00:45:00,
2013-07-15 17:51:00,71.8,38.7,29.68,NNW,344,5.0,5.0,30,0.00,,,0.00,Wunderground v.1.15,2013-07-16 00:51:00,
2013-07-15 17:57:00,71.8,38.7,29.68,West,263,4.0,6.0,30,0.00,,,0.00,Wunderground v.1.15,2013-07-16 00:57:00,
2013-07-15 18:02:00,71.3,38.2,29.68,NW,308,5.0,14.0,30,0.00,,,0.00,Wunderground v.1.15,2013-07-16 01:02:00,
2013-07-15 18:08:00,70.9,37.9,29.68,WNW,296,5.0,14.0,30,0.00,,,0.00,Wunderground v.1.15,2013-07-16 01:08:00,
2013-07-15 18:13:00,70.8,37.8,29.68,NW,309,5.0,6.0,30,0.00,,,0.00,Wunderground v.1.15,2013-07-16 01:13:00,
2013-07-15 18:20:00,70.4,38.3,29.68,WNW,292,4.0,5.0,31,0.00,,,0.00,Wunderground v.1.15,2013-07-16 01:20:00,
2013-07-15 18:25:00,70.1,38.0,29.68,NNW,344,5.0,8.0,31,0.00,,,0.00,Wunderground v.1.15,2013-07-16 01:25:00,
2013-07-15 18:31:00,70.3,38.2,29.69,NNW,339,4.0,6.0,31,0.00,,,0.00,Wunderground v.1.15,2013-07-16 01:31:00,
2013-07-15 18:37:00,69.9,37.0,29.69,NNW,342,4.0,7.0,30,0.00,,,0.00,Wunderground v.1.15,2013-07-16 01:37:00,
2013-07-15 18:42:00,69.8,36.9,29.69,NNW,340,4.0,6.0,30,0.00,,,0.00,Wunderground v.1.15,2013-07-16 01:42:00,
2013-07-15 18:47:00,69.6,36.8,29.69,NNW,344,3.0,6.0,30,0.00,,,0.00,Wunderground v.1.15,2013-07-16 01:47:00,
2013-07-15 18:53:00,69.4,36.6,29.69,NW,322,3.0,6.0,30,0.00,,,0.00,Wunderground v.1.15,2013-07-16 01:53:00,
2013-07-15 18:58:00,69.1,36.3,29.69,NNW,338,3.0,6.0,30,0.00,,,0.00,Wunderground v.1.15,2013-07-16 01:58:00,
2013-07-15 19:03:00,68.9,36.2,29.69,West,263,4.0,16.0,30,0.00,,,0.00,Wunderground v.1.15,2013-07-16 02:03:00,
2013-07-15 19:09:00,68.8,35.2,29.69,NNW,327,4.0,4.0,29,0.00,,,0.00,Wunderground v.1.15,2013-07-16 02:09:00,
2013-07-15 19:16:00,68.4,34.9,29.70,NW,313,3.0,6.0,29,0.00,,,0.00,Wunderground v.1.15,2013-07-16 02:16:00,
2013-07-15 19:21:00,67.9,33.6,29.70,NNW,338,4.0,5.0,28,0.00,,,0.00,Wunderground v.1.15,2013-07-16 02:21:00,
2013-07-15 19:26:00,67.6,33.3,29.70,NNW,340,4.0,5.0,28,0.00,,,0.00,Wunderground v.1.15,2013-07-16 02:26:00,
2013-07-15 19:32:00,67.1,32.9,29.70,NNW,334,3.0,4.0,28,0.00,,,0.00,Wunderground v.1.15,2013-07-16 02:32:00,
2013-07-15 19:38:00,66.9,32.7,29.70,North,360,2.0,7.0,28,0.00,,,0.00,Wunderground v.1.15,2013-07-16 02:38:00,
2013-07-15 19:45:00,66.4,33.2,29.71,NNW,341,4.0,7.0,29,0.00,,,0.00,Wunderground v.1.15,2013-07-16 02:45:00,
2013-07-15 19:51:00,66.0,32.8,29.71,NNW,333,5.0,6.0,29,0.00,,,0.00,Wunderground v.1.15,2013-07-16 02:51:00,
2013-07-15 19:59:00,65.3,33.0,29.71,NNW,340,4.0,7.0,30,0.00,,,0.00,Wunderground v.1.15,2013-07-16 02:59:00,
2013-07-15 20:05:00,65.0,31.9,29.71,NNW,344,4.0,14.0,29,0.00,,,0.00,Wunderground v.1.15,2013-07-16 03:05:00,
2013-07-15 20:10:00,64.7,32.5,29.71,WNW,294,4.0,7.0,30,0.00,,,0.00,Wunderground v.1.15,2013-07-16 03:10:00,
2013-07-15 20:17:00,64.5,31.5,29.71,NNW,336,5.0,7.0,29,0.00,,,0.00,Wunderground v.1.15,2013-07-16 03:17:00,
2013-07-15 20:23:00,64.3,31.3,29.71,NW,320,4.0,9.0,29,0.00,,,0.00,Wunderground v.1.15,2013-07-16 03:23:00,
2013-07-15 20:28:00,64.3,31.3,29.71,NNW,344,5.0,9.0,29,0.00,,,0.00,Wunderground v.1.15,2013-07-16 03:28:00,
2013-07-15 20:35:00,64.0,31.1,29.71,NNW,342,5.0,8.0,29,0.00,,,0.00,Wunderground v.1.15,2013-07-16 03:35:00,
2013-07-15 20:40:00,64.0,31.1,29.71,NNW,338,5.0,5.0,29,0.00,,,0.00,Wunderground v.1.15,2013-07-16 03:40:00,
2013-07-15 20:46:00,63.9,31.0,29.72,WNW,302,4.0,6.0,29,0.00,,,0.00,Wunderground v.1.15,2013-07-16 03:46:00,
2013-07-15 20:52:00,63.7,30.0,29.72,NNW,341,4.0,6.0,28,0.00,,,0.00,Wunderground v.1.15,2013-07-16 03:52:00,
2013-07-15 20:58:00,63.9,30.1,29.72,NNW,333,5.0,12.0,28,0.00,,,0.00,Wunderground v.1.15,2013-07-16 03:58:00,
2013-07-15 21:01:00,64.0,30.2,29.72,NNW,340,5.0,12.0,28,0.00,,,0.00,Wunderground v.1.15,2013-07-16 04:01:00,
2013-07-15 21:02:00,63.9,30.1,29.72,NNW,338,5.0,12.0,28,0.00,,,0.00,Wunderground v.1.15,2013-07-16 04:02:00,
2013-07-15 21:03:00,63.9,30.1,29.72,North,355,5.0,12.0,28,0.00,,,0.00,Wunderground v.1.15,2013-07-16 04:03:00,
2013-07-15 21:05:00,63.9,30.1,29.72,NNW,346,5.0,12.0,28,0.00,,,0.00,Wunderground v.1.15,2013-07-16 04:05:00,
2013-07-15 21:06:00,63.9,30.1,29.72,NNW,334,5.0,12.0,28,0.00,,,0.00,Wunderground v.1.15,2013-07-16 04:06:00,
2013-07-15 21:12:00,63.7,30.0,29.72,NNW,344,5.0,6.0,28,0.00,,,0.00,Wunderground v.1.15,2013-07-16 04:12:00,
2013-07-15 21:18:00,63.7,30.0,29.72,North,351,4.0,6.0,28,0.00,,,0.00,Wunderground v.1.15,2013-07-16 04:18:00,
2013-07-15 21:23:00,63.7,29.1,29.72,NNW,332,4.0,5.0,27,0.00,,,0.00,Wunderground v.1.15,2013-07-16 04:23:00,
2013-07-15 21:29:00,63.9,29.2,29.73,NW,316,4.0,5.0,27,0.00,,,0.00,Wunderground v.1.15,2013-07-16 04:29:00,
2013-07-15 21:34:00,63.9,29.2,29.73,NNW,340,4.0,8.0,27,0.00,,,0.00,Wunderground v.1.15,2013-07-16 04:34:00,
2013-07-15 21:39:00,63.7,29.1,29.73,NNW,342,4.0,4.0,27,0.00,,,0.00,Wunderground v.1.15,2013-07-16 04:39:00,
2013-07-15 21:44:00,63.9,29.2,29.73,North,355,4.0,7.0,27,0.00,,,0.00,Wunderground v.1.15,2013-07-16 04:44:00,
2013-07-15 21:50:00,63.9,29.2,29.73,NNW,328,4.0,5.0,27,0.00,,,0.00,Wunderground v.1.15,2013-07-16 04:50:00,
2013-07-15 21:55:00,63.7,30.0,29.73,NW,316,4.0,5.0,28,0.00,,,0.00,Wunderground v.1.15,2013-07-16 04:55:00,
2013-07-15 22:00:00,63.5,29.8,29.73,NW,324,3.0,5.0,28,0.00,,,0.00,Wunderground v.1.15,2013-07-16 05:00:00,
2013-07-15 22:06:00,63.4,29.7,29.73,NNW,343,2.0,12.0,28,0.00,,,0.00,Wunderground v.1.15,2013-07-16 05:06:00,
2013-07-15 22:12:00,63.4,29.7,29.73,NW,313,3.0,7.0,28,0.00,,,0.00,Wunderground v.1.15,2013-07-16 05:12:00,
2013-07-15 22:17:00,63.2,30.4,29.73,North,355,2.0,7.0,29,0.00,,,0.00,Wunderground v.1.15,2013-07-16 05:17:00,
2013-07-15 22:23:00,63.2,30.4,29.73,NW,325,2.0,4.0,29,0.00,,,0.00,Wunderground v.1.15,2013-07-16 05:23:00,
2013-07-15 22:28:00,63.4,30.6,29.73,North,350,2.0,5.0,29,0.00,,,0.00,Wunderground v.1.15,2013-07-16 05:28:00,
2013-07-15 22:34:00,63.4,30.6,29.74,NNW,338,3.0,6.0,29,0.00,,,0.00,Wunderground v.1.15,2013-07-16 05:34:00,
2013-07-15 22:40:00,63.4,30.6,29.74,NNW,340,4.0,5.0,29,0.00,,,0.00,Wunderground v.1.15,2013-07-16 05:40:00,
2013-07-15 22:46:00,63.2,30.4,29.74,NNW,340,4.0,5.0,29,0.00,,,0.00,Wunderground v.1.15,2013-07-16 05:46:00,
2013-07-15 22:52:00,63.1,30.3,29.74,NNW,341,2.0,4.0,29,0.00,,,0.00,Wunderground v.1.15,2013-07-16 05:52:00,
2013-07-15 22:57:00,63.1,30.3,29.74,NNW,339,3.0,4.0,29,0.00,,,0.00,Wunderground v.1.15,2013-07-16 05:57:00,
2013-07-15 23:02:00,63.2,30.4,29.74,NNW,347,3.0,9.0,29,0.00,,,0.00,Wunderground v.1.15,2013-07-16 06:02:00,
2013-07-15 23:07:00,63.1,31.1,29.74,NNW,347,2.0,9.0,30,0.00,,,0.00,Wunderground v.1.15,2013-07-16 06:07:00,
2013-07-15 23:13:00,62.9,31.0,29.74,NNW,344,1.0,3.0,30,0.00,,,0.00,Wunderground v.1.15,2013-07-16 06:13:00,
2013-07-15 23:18:00,62.9,31.0,29.75,NNW,343,2.0,5.0,30,0.00,,,0.00,Wunderground v.1.15,2013-07-16 06:18:00,
2013-07-15 23:23:00,62.7,30.8,29.75,NNW,341,2.0,5.0,30,0.00,,,0.00,Wunderground v.1.15,2013-07-16 06:23:00,
2013-07-15 23:29:00,63.1,31.1,29.75,NNW,343,2.0,3.0,30,0.00,,,0.00,Wunderground v.1.15,2013-07-16 06:29:00,
2013-07-15 23:35:00,62.7,30.8,29.75,NNW,343,2.0,3.0,30,0.00,,,0.00,Wunderground v.1.15,2013-07-16 06:35:00,
2013-07-15 23:40:00,62.4,30.5,29.75,NNW,342,1.0,5.0,30,0.00,,,0.00,Wunderground v.1.15,2013-07-16 06:40:00,
2013-07-15 23:45:00,62.6,30.7,29.75,NNW,343,2.0,6.0,30,0.00,,,0.00,Wunderground v.1.15,2013-07-16 06:45:00,
2013-07-15 23:50:00,62.9,31.0,29.75,NNW,343,4.0,4.0,30,0.00,,,0.00,Wunderground v.1.15,2013-07-16 06:50:00,
2013-07-15 23:56:00,62.7,30.8,29.75,NNW,343,3.0,4.0,30,0.00,,,0.00,Wunderground v.1.15,2013-07-16 06:56:00,